XA29 weather

Public forecast

Using degrees Fahrenheit for public forecast. Weather courtesy of forecast.io.

Closest aviation weather report (METAR) to Heart Hospital of San Antonio Heliport

Closest report is San Antonio International Airport, 4.7 nm (8.8 km) ENE. Retrieved 2020/08/09 13:51 UTC (28 minutes ago):

KSAT 091351Z 17008KT 10SM BKN015 BKN250 27/23 A3013 RMK AO2 SLP183 T02720228

Closest aviation forecast (TAF) to Heart Hospital of San Antonio Heliport

Closest forecast is San Antonio International Airport, 4.7 nm (8.8 km) ENE. Retrieved 2020/08/09 12:33 UTC (2 hours ago):

TAF KSAT 091129Z 0912/1018 17008KT P6SM BKN015 FM091500 17010KT P6SM SCT050 FM092000 16012G22KT P6SM SCT070 FM100900 18007KT P6SM BKN015 FM101500 17010KT P6SM SCT050